Woodruff, Idaho
Current Conditions -  °F | °C
As of 5:51 PM on Friday 31 Oct 2014 (Local Time) from KLGU Reporting Station
Clear Clear  
Wind Chill: 64°   Ceiling: Unl
Heat Index: 64°   Visibility: 10mi
Dew Point: 30°   Wind: 6mph
Humidity: 28%   Direction: 120°ESE
Pressure: 29.86"   Gusts: NA
Location:  42.2285°N, 112.313°W
Report Text: KLGU 312351Z AUTO 12005KT 10SM CLR 18/M01 A2986 RMK AO2 SLP092 T01781011 10228 20156 56006 TSNO
Loading
Personal Weather Stations






























Interactive Weather Map
Tropical Storm Tracking
New forecast layout! Learn more

10-Day Weather Forecast

Advertisements
Track Severe Weather on mobile